SUD025 KEYW-MHTG
Flight info
| Callsign | SUD025 |
|---|---|
| Flight time | 2h 1m |
| Altitude | 34000 |
| Route | MAXIM UG765 CZM UB881 ANIKO/N0464F350 UB881 BTO/N0461F360 |
| Aircraft | A320/M-SDFGHILORVWY/S |
Departure
| Time | 2026-05-03 20:15 |
|---|---|
| Airport | Key West International Airport (KEYW) |
Arrival
| Time | 2026-05-03 22:16 |
|---|---|
| Airport | Toncontín Airport (MHTG) |
| Time | Latitude | Longitude | Altitude | Speed | Heading |
|---|---|---|---|---|---|
| 2026-05-03 20:15 | 24.48755 | -81.67988 | 4481 ft | 267 kts | 173° |
| 2026-05-03 20:15 | 24.46924 | -81.67651 | 5355 ft | 268 kts | 173° |
| 2026-05-03 20:15 | 24.45071 | -81.67315 | 6095 ft | 272 kts | 174° |
| 2026-05-03 20:15 | 24.43195 | -81.66969 | 6803 ft | 276 kts | 173° |
| 2026-05-03 20:16 | 24.41286 | -81.66629 | 7565 ft | 280 kts | 174° |
| 2026-05-03 20:16 | 24.39351 | -81.66273 | 8497 ft | 283 kts | 174° |
| 2026-05-03 20:16 | 24.37394 | -81.65887 | 9246 ft | 289 kts | 173° |
| 2026-05-03 20:16 | 24.35399 | -81.65496 | 9915 ft | 293 kts | 174° |
| 2026-05-03 20:17 | 24.33349 | -81.65099 | 10266 ft | 310 kts | 173° |
| 2026-05-03 20:17 | 24.31140 | -81.64682 | 10410 ft | 332 kts | 174° |
| 2026-05-03 20:17 | 24.28799 | -81.64254 | 10566 ft | 352 kts | 174° |
| 2026-05-03 20:17 | 24.26377 | -81.63813 | 11024 ft | 359 kts | 173° |
| 2026-05-03 20:18 | 24.23870 | -81.63358 | 11615 ft | 363 kts | 174° |
| 2026-05-03 20:18 | 24.21401 | -81.62905 | 12214 ft | 367 kts | 174° |
| 2026-05-03 20:18 | 24.18869 | -81.62437 | 12823 ft | 370 kts | 174° |
| 2026-05-03 20:18 | 24.16316 | -81.62178 | 13379 ft | 369 kts | 186° |
| 2026-05-03 20:19 | 24.13818 | -81.62739 | 13907 ft | 367 kts | 204° |
| 2026-05-03 20:19 | 24.11625 | -81.64142 | 14392 ft | 365 kts | 222° |
| 2026-05-03 20:19 | 24.09968 | -81.66214 | 14925 ft | 364 kts | 240° |
| 2026-05-03 20:19 | 24.08990 | -81.68752 | 15444 ft | 365 kts | 257° |
| 2026-05-03 20:20 | 24.08632 | -81.71511 | 15981 ft | 367 kts | 263° |
| 2026-05-03 20:20 | 24.08351 | -81.74252 | 16521 ft | 368 kts | 263° |
| 2026-05-03 20:20 | 24.08058 | -81.77084 | 17042 ft | 371 kts | 263° |
| 2026-05-03 20:20 | 24.07770 | -81.79862 | 17566 ft | 373 kts | 263° |
| 2026-05-03 20:21 | 24.07473 | -81.82679 | 18080 ft | 375 kts | 263° |
| 2026-05-03 20:21 | 24.07171 | -81.85533 | 18555 ft | 378 kts | 263° |
| 2026-05-03 20:21 | 24.06866 | -81.88395 | 19007 ft | 379 kts | 263° |
| 2026-05-03 20:21 | 24.06559 | -81.91273 | 19472 ft | 381 kts | 262° |
| 2026-05-03 20:22 | 24.06252 | -81.94153 | 19931 ft | 383 kts | 262° |
| 2026-05-03 20:22 | 24.05943 | -81.97045 | 20375 ft | 384 kts | 262° |
| 2026-05-03 20:22 | 24.05637 | -81.99912 | 21302 ft | 369 kts | 262° |
| 2026-05-03 20:22 | 24.05353 | -82.02596 | 22514 ft | 350 kts | 262° |
| 2026-05-03 20:23 | 24.05080 | -82.05193 | 23737 ft | 329 kts | 262° |
| 2026-05-03 20:23 | 24.04826 | -82.07571 | 24682 ft | 311 kts | 262° |
| 2026-05-03 20:23 | 24.04576 | -82.09893 | 25299 ft | 305 kts | 262° |
| 2026-05-03 20:23 | 24.04326 | -82.12192 | 25714 ft | 304 kts | 262° |
| 2026-05-03 20:24 | 24.04076 | -82.14503 | 25984 ft | 310 kts | 262° |
| 2026-05-03 20:24 | 24.03820 | -82.16874 | 26105 ft | 319 kts | 262° |
| 2026-05-03 20:24 | 24.03556 | -82.19310 | 26227 ft | 328 kts | 262° |
| 2026-05-03 20:24 | 24.03285 | -82.21817 | 26350 ft | 337 kts | 262° |
| 2026-05-03 20:25 | 24.03003 | -82.24401 | 26470 ft | 346 kts | 262° |
| 2026-05-03 20:25 | 24.02714 | -82.27047 | 26595 ft | 355 kts | 262° |
| 2026-05-03 20:25 | 24.02420 | -82.29757 | 26714 ft | 363 kts | 262° |
| 2026-05-03 20:25 | 24.02118 | -82.32529 | 26841 ft | 371 kts | 262° |
| 2026-05-03 20:26 | 24.01810 | -82.35360 | 26960 ft | 379 kts | 262° |
| 2026-05-03 20:26 | 24.01499 | -82.38208 | 27082 ft | 385 kts | 262° |
| 2026-05-03 20:26 | 24.01179 | -82.41138 | 27210 ft | 391 kts | 262° |
| 2026-05-03 20:26 | 24.00852 | -82.44118 | 27336 ft | 397 kts | 262° |
| 2026-05-03 20:27 | 24.00519 | -82.47130 | 27460 ft | 402 kts | 261° |
| 2026-05-03 20:27 | 23.99905 | -82.50121 | 27582 ft | 406 kts | 251° |
| 2026-05-03 20:27 | 23.98780 | -82.52967 | 27716 ft | 410 kts | 242° |
| 2026-05-03 20:27 | 23.97178 | -82.55559 | 27914 ft | 415 kts | 233° |
| 2026-05-03 20:28 | 23.95348 | -82.57947 | 28126 ft | 416 kts | 232° |
| 2026-05-03 20:28 | 23.93482 | -82.60374 | 28348 ft | 418 kts | 232° |
| 2026-05-03 20:28 | 23.91611 | -82.62807 | 28561 ft | 419 kts | 232° |
| 2026-05-03 20:28 | 23.89736 | -82.65249 | 28771 ft | 420 kts | 232° |
| 2026-05-03 20:29 | 23.87855 | -82.67700 | 28934 ft | 422 kts | 232° |
| 2026-05-03 20:29 | 23.85960 | -82.70165 | 29047 ft | 425 kts | 232° |
| 2026-05-03 20:29 | 23.84060 | -82.72637 | 29205 ft | 427 kts | 232° |
| 2026-05-03 20:29 | 23.82150 | -82.75125 | 29442 ft | 426 kts | 232° |
| 2026-05-03 20:30 | 23.80246 | -82.77606 | 29721 ft | 425 kts | 232° |
| 2026-05-03 20:30 | 23.78376 | -82.80039 | 30020 ft | 423 kts | 232° |
| 2026-05-03 20:30 | 23.76483 | -82.82492 | 30301 ft | 421 kts | 232° |
| 2026-05-03 20:30 | 23.74598 | -82.84931 | 30544 ft | 419 kts | 232° |
| 2026-05-03 20:31 | 23.72724 | -82.87358 | 30785 ft | 419 kts | 232° |
| 2026-05-03 20:31 | 23.70849 | -82.89790 | 31013 ft | 418 kts | 232° |
| 2026-05-03 20:31 | 23.68977 | -82.92215 | 31232 ft | 417 kts | 232° |
| 2026-05-03 20:31 | 23.67111 | -82.94628 | 31464 ft | 417 kts | 232° |
| 2026-05-03 20:32 | 23.65242 | -82.97043 | 31686 ft | 416 kts | 232° |
| 2026-05-03 20:32 | 23.63379 | -82.99451 | 31913 ft | 416 kts | 232° |
| 2026-05-03 20:32 | 23.61517 | -83.01857 | 32137 ft | 415 kts | 232° |
| 2026-05-03 20:32 | 23.59683 | -83.04227 | 32367 ft | 414 kts | 232° |
| 2026-05-03 20:33 | 23.57817 | -83.06640 | 32508 ft | 416 kts | 232° |
| 2026-05-03 20:33 | 23.55947 | -83.09054 | 32630 ft | 419 kts | 232° |
| 2026-05-03 20:33 | 23.54063 | -83.11487 | 32777 ft | 420 kts | 232° |
| 2026-05-03 20:33 | 23.52178 | -83.13919 | 32974 ft | 421 kts | 232° |
| 2026-05-03 20:34 | 23.50291 | -83.16352 | 33202 ft | 420 kts | 232° |
| 2026-05-03 20:34 | 23.48431 | -83.18743 | 33518 ft | 417 kts | 232° |
| 2026-05-03 20:34 | 23.46567 | -83.21138 | 33803 ft | 415 kts | 232° |
| 2026-05-03 20:34 | 23.44703 | -83.23537 | 33982 ft | 414 kts | 232° |
| 2026-05-03 20:35 | 23.42844 | -83.25932 | 34024 ft | 414 kts | 232° |
| 2026-05-03 20:35 | 23.39125 | -83.30715 | 34022 ft | 413 kts | 232° |
| 2026-05-03 20:36 | 23.35407 | -83.35485 | 34020 ft | 413 kts | 232° |
| 2026-05-03 20:36 | 23.31690 | -83.40252 | 34024 ft | 413 kts | 232° |
| 2026-05-03 20:37 | 23.27970 | -83.45020 | 34014 ft | 416 kts | 232° |
| 2026-05-03 20:37 | 23.24223 | -83.49815 | 34021 ft | 420 kts | 232° |
| 2026-05-03 20:38 | 23.20429 | -83.54658 | 34022 ft | 420 kts | 232° |
| 2026-05-03 20:38 | 23.16655 | -83.59470 | 34021 ft | 418 kts | 232° |
| 2026-05-03 20:39 | 23.12915 | -83.64238 | 34024 ft | 417 kts | 232° |
| 2026-05-03 20:39 | 23.09151 | -83.69040 | 34024 ft | 417 kts | 232° |
| 2026-05-03 20:40 | 23.05388 | -83.73838 | 34024 ft | 417 kts | 232° |
| 2026-05-03 20:40 | 23.01621 | -83.78629 | 34021 ft | 417 kts | 232° |
| 2026-05-03 20:41 | 22.97849 | -83.83418 | 34005 ft | 418 kts | 232° |
| 2026-05-03 20:41 | 22.94076 | -83.88211 | 34024 ft | 421 kts | 232° |
| 2026-05-03 20:42 | 22.90273 | -83.93036 | 34022 ft | 421 kts | 233° |
| 2026-05-03 20:42 | 22.86474 | -83.97846 | 34021 ft | 419 kts | 233° |
| 2026-05-03 20:43 | 22.82680 | -84.02648 | 34024 ft | 419 kts | 233° |
| 2026-05-03 20:43 | 22.78889 | -84.07449 | 34021 ft | 419 kts | 233° |
| 2026-05-03 20:44 | 22.75116 | -84.12215 | 34021 ft | 419 kts | 233° |
| 2026-05-03 20:44 | 22.71336 | -84.17019 | 34021 ft | 419 kts | 233° |
| 2026-05-03 20:45 | 22.67601 | -84.21858 | 33999 ft | 419 kts | 233° |
| 2026-05-03 20:45 | 22.63871 | -84.26717 | 34022 ft | 420 kts | 233° |
| 2026-05-03 20:46 | 22.60145 | -84.31547 | 34021 ft | 420 kts | 233° |
| 2026-05-03 20:46 | 22.56397 | -84.36394 | 34022 ft | 420 kts | 233° |
| 2026-05-03 20:47 | 22.52649 | -84.41229 | 34018 ft | 420 kts | 233° |
| 2026-05-03 20:47 | 22.48893 | -84.46065 | 34018 ft | 420 kts | 233° |
| 2026-05-03 20:48 | 22.45155 | -84.50860 | 34019 ft | 420 kts | 233° |
| 2026-05-03 20:48 | 22.41396 | -84.55688 | 34018 ft | 420 kts | 233° |
| 2026-05-03 20:49 | 22.37640 | -84.60525 | 34019 ft | 420 kts | 233° |
| 2026-05-03 20:49 | 22.33886 | -84.65368 | 34015 ft | 421 kts | 233° |
| 2026-05-03 20:50 | 22.30125 | -84.70201 | 34020 ft | 419 kts | 234° |
| 2026-05-03 20:50 | 22.26393 | -84.74975 | 34021 ft | 418 kts | 233° |
| 2026-05-03 20:51 | 22.22644 | -84.79770 | 34024 ft | 418 kts | 234° |
| 2026-05-03 20:51 | 22.18899 | -84.84559 | 34025 ft | 418 kts | 234° |
| 2026-05-03 20:52 | 22.15152 | -84.89349 | 34017 ft | 418 kts | 233° |
| 2026-05-03 20:52 | 22.11405 | -84.94136 | 34024 ft | 418 kts | 233° |
| 2026-05-03 20:53 | 22.07670 | -84.98893 | 34008 ft | 418 kts | 233° |
| 2026-05-03 20:53 | 22.03917 | -85.03686 | 34016 ft | 421 kts | 233° |
| 2026-05-03 20:54 | 22.00103 | -85.08561 | 34014 ft | 428 kts | 233° |
| 2026-05-03 20:54 | 21.94336 | -85.15936 | 34013 ft | 429 kts | 233° |
| 2026-05-03 20:55 | 21.90517 | -85.20877 | 34018 ft | 429 kts | 233° |
| 2026-05-03 20:55 | 21.86718 | -85.25782 | 34012 ft | 429 kts | 233° |
| 2026-05-03 20:56 | 21.82896 | -85.30718 | 34013 ft | 429 kts | 233° |
| 2026-05-03 20:56 | 21.79066 | -85.35650 | 34013 ft | 429 kts | 233° |
| 2026-05-03 20:57 | 21.75225 | -85.40572 | 34010 ft | 429 kts | 233° |
| 2026-05-03 20:57 | 21.71388 | -85.45492 | 34001 ft | 430 kts | 233° |
| 2026-05-03 20:58 | 21.67546 | -85.50433 | 34006 ft | 431 kts | 233° |
| 2026-05-03 20:58 | 21.63728 | -85.55331 | 34005 ft | 431 kts | 233° |
| 2026-05-03 20:59 | 21.59872 | -85.60255 | 34006 ft | 431 kts | 233° |
| 2026-05-03 20:59 | 21.56018 | -85.65178 | 34003 ft | 431 kts | 233° |
| 2026-05-03 21:00 | 21.52811 | -85.69283 | 34008 ft | 431 kts | 233° |
| 2026-05-03 21:00 | 21.48329 | -85.75009 | 34000 ft | 431 kts | 233° |
| 2026-05-03 21:01 | 21.44359 | -85.79830 | 33998 ft | 432 kts | 231° |
| 2026-05-03 21:01 | 21.40319 | -85.84611 | 34001 ft | 432 kts | 231° |
| 2026-05-03 21:02 | 21.36302 | -85.89402 | 33996 ft | 432 kts | 232° |
| 2026-05-03 21:02 | 21.32307 | -85.94203 | 33996 ft | 432 kts | 232° |
| 2026-05-03 21:03 | 21.28333 | -85.98973 | 33993 ft | 432 kts | 232° |
| 2026-05-03 21:03 | 21.24331 | -86.03771 | 33997 ft | 432 kts | 232° |
| 2026-05-03 21:04 | 21.20323 | -86.08570 | 33993 ft | 432 kts | 232° |
| 2026-05-03 21:04 | 21.16314 | -86.13360 | 33992 ft | 432 kts | 232° |
| 2026-05-03 21:05 | 21.12337 | -86.18120 | 33999 ft | 432 kts | 232° |
| 2026-05-03 21:05 | 21.08340 | -86.22895 | 33985 ft | 430 kts | 231° |
| 2026-05-03 21:06 | 21.03841 | -86.27107 | 33990 ft | 440 kts | 210° |
| 2026-05-03 21:06 | 20.97972 | -86.29246 | 33988 ft | 448 kts | 201° |
| 2026-05-03 21:07 | 20.92032 | -86.31143 | 33986 ft | 448 kts | 201° |
| 2026-05-03 21:07 | 20.86058 | -86.33033 | 33986 ft | 448 kts | 201° |
| 2026-05-03 21:08 | 20.80080 | -86.34949 | 33983 ft | 448 kts | 201° |
| 2026-05-03 21:08 | 20.74114 | -86.36873 | 33985 ft | 449 kts | 202° |
| 2026-05-03 21:09 | 20.68114 | -86.38800 | 33980 ft | 451 kts | 202° |
| 2026-05-03 21:09 | 20.62102 | -86.40722 | 33981 ft | 451 kts | 202° |
| 2026-05-03 21:10 | 20.56134 | -86.42639 | 33977 ft | 451 kts | 202° |
| 2026-05-03 21:10 | 20.50134 | -86.44566 | 33978 ft | 451 kts | 202° |
| 2026-05-03 21:11 | 20.44128 | -86.46492 | 33980 ft | 451 kts | 202° |
| 2026-05-03 21:11 | 20.38113 | -86.48411 | 33975 ft | 452 kts | 201° |
| 2026-05-03 21:12 | 20.32075 | -86.50339 | 33970 ft | 453 kts | 201° |
| 2026-05-03 21:12 | 20.26077 | -86.52254 | 33972 ft | 453 kts | 201° |
| 2026-05-03 21:13 | 20.20049 | -86.54180 | 33975 ft | 453 kts | 201° |
| 2026-05-03 21:13 | 20.14028 | -86.56096 | 33972 ft | 453 kts | 201° |
| 2026-05-03 21:14 | 20.08167 | -86.57960 | 33961 ft | 453 kts | 201° |
| 2026-05-03 21:14 | 20.02122 | -86.59890 | 33968 ft | 454 kts | 201° |
| 2026-05-03 21:15 | 19.96064 | -86.61817 | 33972 ft | 455 kts | 200° |
| 2026-05-03 21:15 | 19.89998 | -86.63741 | 33970 ft | 455 kts | 200° |
| 2026-05-03 21:16 | 19.83940 | -86.65669 | 33967 ft | 455 kts | 200° |
| 2026-05-03 21:16 | 19.77926 | -86.67578 | 33967 ft | 455 kts | 200° |
| 2026-05-03 21:17 | 19.72888 | -86.69172 | 33970 ft | 453 kts | 200° |
| 2026-05-03 21:17 | 19.65840 | -86.71399 | 33966 ft | 452 kts | 200° |
| 2026-05-03 21:18 | 19.59848 | -86.73296 | 33964 ft | 452 kts | 200° |
| 2026-05-03 21:18 | 19.53828 | -86.75206 | 33966 ft | 452 kts | 200° |
| 2026-05-03 21:19 | 19.47814 | -86.77108 | 33964 ft | 452 kts | 200° |
| 2026-05-03 21:19 | 19.41774 | -86.79016 | 33956 ft | 452 kts | 201° |
| 2026-05-03 21:20 | 19.35742 | -86.80920 | 33964 ft | 452 kts | 201° |
| 2026-05-03 21:20 | 19.29759 | -86.82802 | 33954 ft | 452 kts | 201° |
| 2026-05-03 21:21 | 19.23693 | -86.84712 | 33958 ft | 452 kts | 201° |
| 2026-05-03 21:21 | 19.17711 | -86.86598 | 33961 ft | 452 kts | 201° |
| 2026-05-03 21:22 | 19.11686 | -86.88498 | 33963 ft | 452 kts | 201° |
| 2026-05-03 21:22 | 19.05612 | -86.90282 | 33957 ft | 457 kts | 194° |
| 2026-05-03 21:23 | 18.99205 | -86.90567 | 33963 ft | 465 kts | 183° |
| 2026-05-03 21:23 | 18.92777 | -86.90470 | 33957 ft | 464 kts | 184° |
| 2026-05-03 21:24 | 18.86315 | -86.90393 | 33962 ft | 465 kts | 184° |
| 2026-05-03 21:24 | 18.79854 | -86.90317 | 33956 ft | 465 kts | 184° |
| 2026-05-03 21:25 | 18.73381 | -86.90231 | 33947 ft | 465 kts | 183° |
| 2026-05-03 21:25 | 18.66909 | -86.90154 | 33954 ft | 465 kts | 183° |
| 2026-05-03 21:26 | 18.60483 | -86.90073 | 33954 ft | 465 kts | 183° |
| 2026-05-03 21:26 | 18.54006 | -86.89986 | 33954 ft | 465 kts | 183° |
| 2026-05-03 21:27 | 18.47537 | -86.89904 | 33950 ft | 465 kts | 183° |
| 2026-05-03 21:27 | 18.41067 | -86.89819 | 33951 ft | 465 kts | 183° |
| 2026-05-03 21:28 | 18.34626 | -86.89743 | 33954 ft | 467 kts | 183° |
| 2026-05-03 21:28 | 18.28119 | -86.89658 | 33953 ft | 468 kts | 183° |
| 2026-05-03 21:29 | 18.21611 | -86.89565 | 33950 ft | 468 kts | 183° |
| 2026-05-03 21:29 | 18.15111 | -86.89484 | 33950 ft | 467 kts | 183° |
| 2026-05-03 21:30 | 18.08666 | -86.89405 | 33948 ft | 468 kts | 183° |
| 2026-05-03 21:30 | 18.02143 | -86.89319 | 33947 ft | 468 kts | 183° |
| 2026-05-03 21:31 | 17.95632 | -86.89232 | 33942 ft | 468 kts | 183° |
| 2026-05-03 21:31 | 17.89118 | -86.89144 | 33942 ft | 468 kts | 183° |
| 2026-05-03 21:32 | 17.82619 | -86.89062 | 33942 ft | 468 kts | 183° |
| 2026-05-03 21:32 | 17.76160 | -86.88987 | 33942 ft | 468 kts | 183° |
| 2026-05-03 21:33 | 17.69645 | -86.88906 | 33937 ft | 469 kts | 183° |
| 2026-05-03 21:33 | 17.63105 | -86.88826 | 33940 ft | 471 kts | 183° |
| 2026-05-03 21:34 | 17.56550 | -86.88741 | 33936 ft | 471 kts | 182° |
| 2026-05-03 21:34 | 17.50048 | -86.88646 | 33937 ft | 471 kts | 182° |
| 2026-05-03 21:35 | 17.43507 | -86.88556 | 33934 ft | 471 kts | 183° |
| 2026-05-03 21:35 | 17.36950 | -86.88472 | 33928 ft | 471 kts | 182° |
| 2026-05-03 21:36 | 17.30397 | -86.88391 | 33936 ft | 471 kts | 182° |
| 2026-05-03 21:36 | 17.23843 | -86.88307 | 33931 ft | 471 kts | 182° |
| 2026-05-03 21:37 | 17.17334 | -86.88223 | 33928 ft | 471 kts | 182° |
| 2026-05-03 21:37 | 17.10790 | -86.88141 | 33925 ft | 471 kts | 182° |
| 2026-05-03 21:38 | 17.04232 | -86.88061 | 33926 ft | 471 kts | 182° |
| 2026-05-03 21:38 | 16.97691 | -86.87978 | 33925 ft | 469 kts | 182° |
| 2026-05-03 21:39 | 16.91218 | -86.87894 | 33929 ft | 468 kts | 182° |
| 2026-05-03 21:39 | 16.84707 | -86.87816 | 33930 ft | 468 kts | 182° |
| 2026-05-03 21:40 | 16.78192 | -86.87735 | 33931 ft | 468 kts | 182° |
| 2026-05-03 21:40 | 16.71693 | -86.87650 | 33936 ft | 468 kts | 182° |
| 2026-05-03 21:41 | 16.65187 | -86.87571 | 33933 ft | 466 kts | 181° |
| 2026-05-03 21:41 | 16.58755 | -86.87492 | 33934 ft | 465 kts | 181° |
| 2026-05-03 21:42 | 16.52291 | -86.87407 | 33937 ft | 465 kts | 181° |
| 2026-05-03 21:42 | 16.45823 | -86.87322 | 33937 ft | 465 kts | 181° |
| 2026-05-03 21:43 | 16.39358 | -86.87241 | 33936 ft | 465 kts | 181° |
| 2026-05-03 21:43 | 16.32941 | -86.87157 | 33936 ft | 465 kts | 181° |
| 2026-05-03 21:44 | 16.26494 | -86.87078 | 33935 ft | 463 kts | 181° |
| 2026-05-03 21:44 | 16.20064 | -86.86997 | 33936 ft | 462 kts | 181° |
| 2026-05-03 21:45 | 16.13624 | -86.86912 | 33939 ft | 462 kts | 181° |
| 2026-05-03 21:45 | 16.07230 | -86.86830 | 33937 ft | 462 kts | 180° |
| 2026-05-03 21:46 | 16.00804 | -86.86750 | 33933 ft | 462 kts | 181° |
| 2026-05-03 21:46 | 15.94374 | -86.86675 | 33928 ft | 462 kts | 181° |
| 2026-05-03 21:47 | 15.87951 | -86.86600 | 33924 ft | 462 kts | 181° |
| 2026-05-03 21:47 | 15.81525 | -86.86515 | 33920 ft | 462 kts | 181° |
| 2026-05-03 21:48 | 15.75146 | -86.86482 | 33917 ft | 461 kts | 185° |
| 2026-05-03 21:48 | 15.68915 | -86.87819 | 33922 ft | 458 kts | 198° |
| 2026-05-03 21:49 | 15.62790 | -86.89647 | 33924 ft | 458 kts | 198° |
| 2026-05-03 21:49 | 15.56684 | -86.91448 | 33936 ft | 456 kts | 197° |
| 2026-05-03 21:50 | 15.50596 | -86.93234 | 33944 ft | 455 kts | 196° |
| 2026-05-03 21:50 | 15.44505 | -86.95033 | 33655 ft | 454 kts | 198° |
| 2026-05-03 21:51 | 15.41437 | -86.95944 | 33066 ft | 462 kts | 198° |
| 2026-05-03 21:51 | 15.38359 | -86.96857 | 31937 ft | 471 kts | 197° |
| 2026-05-03 21:51 | 15.35199 | -86.97794 | 30970 ft | 473 kts | 197° |
| 2026-05-03 21:51 | 15.32063 | -86.98718 | 29899 ft | 467 kts | 198° |
| 2026-05-03 21:52 | 15.28958 | -86.99631 | 28967 ft | 456 kts | 197° |
| 2026-05-03 21:52 | 15.25975 | -87.00506 | 28439 ft | 439 kts | 197° |
| 2026-05-03 21:52 | 15.23051 | -87.01366 | 27770 ft | 436 kts | 196° |
| 2026-05-03 21:52 | 15.20182 | -87.02213 | 27138 ft | 432 kts | 196° |
| 2026-05-03 21:53 | 15.17267 | -87.03074 | 26501 ft | 429 kts | 196° |
| 2026-05-03 21:53 | 15.14445 | -87.03903 | 25885 ft | 425 kts | 195° |
| 2026-05-03 21:53 | 15.13489 | -87.04184 | 25682 ft | 424 kts | 195° |
| 2026-05-03 21:53 | 15.08797 | -87.05567 | 24657 ft | 420 kts | 195° |
| 2026-05-03 21:54 | 15.05993 | -87.06395 | 24046 ft | 416 kts | 195° |
| 2026-05-03 21:54 | 15.03214 | -87.07214 | 23438 ft | 417 kts | 195° |
| 2026-05-03 21:54 | 15.00421 | -87.08037 | 22797 ft | 418 kts | 195° |
| 2026-05-03 21:54 | 14.97634 | -87.08856 | 22231 ft | 416 kts | 194° |
| 2026-05-03 21:55 | 14.95791 | -87.09397 | 21870 ft | 415 kts | 194° |
| 2026-05-03 21:55 | 14.92128 | -87.10475 | 21164 ft | 412 kts | 194° |
| 2026-05-03 21:55 | 14.89374 | -87.11284 | 20662 ft | 411 kts | 194° |
| 2026-05-03 21:55 | 14.86631 | -87.12086 | 20174 ft | 408 kts | 194° |
| 2026-05-03 21:56 | 14.83908 | -87.12881 | 19686 ft | 406 kts | 193° |
| 2026-05-03 21:56 | 14.81199 | -87.13678 | 19210 ft | 403 kts | 194° |
| 2026-05-03 21:56 | 14.78510 | -87.14470 | 18730 ft | 402 kts | 194° |
| 2026-05-03 21:56 | 14.75813 | -87.15261 | 18216 ft | 401 kts | 194° |
| 2026-05-03 21:57 | 14.73134 | -87.16046 | 17647 ft | 400 kts | 194° |
| 2026-05-03 21:57 | 14.70510 | -87.16816 | 17135 ft | 397 kts | 193° |
| 2026-05-03 21:57 | 14.67816 | -87.17607 | 16614 ft | 395 kts | 194° |
| 2026-05-03 21:57 | 14.65214 | -87.18370 | 16102 ft | 394 kts | 194° |
| 2026-05-03 21:58 | 14.62581 | -87.19142 | 15562 ft | 392 kts | 194° |
| 2026-05-03 21:58 | 14.59963 | -87.19910 | 15038 ft | 391 kts | 194° |
| 2026-05-03 21:58 | 14.57346 | -87.20677 | 14497 ft | 390 kts | 194° |
| 2026-05-03 21:58 | 14.54741 | -87.21440 | 13952 ft | 389 kts | 193° |
| 2026-05-03 21:59 | 14.52141 | -87.22203 | 13365 ft | 388 kts | 194° |
| 2026-05-03 21:59 | 14.50422 | -87.22705 | 12991 ft | 386 kts | 194° |
| 2026-05-03 21:59 | 14.47009 | -87.23700 | 12265 ft | 383 kts | 193° |
| 2026-05-03 21:59 | 14.44457 | -87.24446 | 11707 ft | 380 kts | 193° |
| 2026-05-03 22:00 | 14.41917 | -87.25190 | 11130 ft | 379 kts | 194° |
| 2026-05-03 22:00 | 14.39388 | -87.25930 | 10637 ft | 375 kts | 194° |
| 2026-05-03 22:00 | 14.36933 | -87.26649 | 10513 ft | 359 kts | 192° |
| 2026-05-03 22:00 | 14.35363 | -87.27107 | 10438 ft | 350 kts | 193° |
| 2026-05-03 22:01 | 14.32307 | -87.28000 | 10300 ft | 332 kts | 193° |
| 2026-05-03 22:01 | 14.30854 | -87.28426 | 10209 ft | 325 kts | 193° |
| 2026-05-03 22:01 | 14.28711 | -87.29054 | 10067 ft | 315 kts | 193° |
| 2026-05-03 22:01 | 14.25984 | -87.29854 | 9669 ft | 301 kts | 193° |
| 2026-05-03 22:02 | 14.24637 | -87.30247 | 9376 ft | 294 kts | 193° |
| 2026-05-03 22:02 | 14.22100 | -87.30988 | 8862 ft | 278 kts | 193° |
| 2026-05-03 22:02 | 14.20287 | -87.31562 | 8507 ft | 267 kts | 197° |
| 2026-05-03 22:02 | 14.19135 | -87.31973 | 8274 ft | 261 kts | 198° |
| 2026-05-03 22:03 | 14.17422 | -87.32645 | 7930 ft | 260 kts | 201° |
| 2026-05-03 22:03 | 14.15778 | -87.33348 | 7584 ft | 259 kts | 199° |
| 2026-05-03 22:03 | 14.14039 | -87.33726 | 7245 ft | 255 kts | 178° |
| 2026-05-03 22:03 | 14.12306 | -87.33466 | 6899 ft | 249 kts | 158° |
| 2026-05-03 22:04 | 14.10761 | -87.32774 | 6721 ft | 233 kts | 153° |
| 2026-05-03 22:04 | 14.08904 | -87.31794 | 6254 ft | 222 kts | 142° |
| 2026-05-03 22:04 | 14.08138 | -87.31080 | 5895 ft | 220 kts | 130° |
| 2026-05-03 22:04 | 14.07282 | -87.29815 | 5480 ft | 208 kts | 122° |
| 2026-05-03 22:05 | 14.06527 | -87.28625 | 5152 ft | 191 kts | 121° |
| 2026-05-03 22:05 | 14.05827 | -87.27533 | 4865 ft | 179 kts | 120° |
| 2026-05-03 22:05 | 14.05152 | -87.26480 | 4588 ft | 169 kts | 120° |
| 2026-05-03 22:05 | 14.04526 | -87.25502 | 4315 ft | 166 kts | 120° |
| 2026-05-03 22:06 | 14.03932 | -87.24474 | 4066 ft | 170 kts | 105° |
| 2026-05-03 22:06 | 14.03871 | -87.23470 | 3895 ft | 161 kts | 76° |
| 2026-05-03 22:06 | 14.04392 | -87.22509 | 3617 ft | 153 kts | 44° |
| 2026-05-03 22:06 | 14.05316 | -87.21994 | 3385 ft | 152 kts | 22° |
| 2026-05-03 22:07 | 14.06299 | -87.21650 | 3287 ft | 144 kts | 24° |
| 2026-05-03 22:07 | 14.07228 | -87.21247 | 3782 ft | 147 kts | 23° |
| 2026-05-03 22:07 | 14.08152 | -87.20790 | 4611 ft | 136 kts | 27° |
| 2026-05-03 22:07 | 14.08916 | -87.20456 | 5512 ft | 117 kts | 12° |
| 2026-05-03 22:08 | 14.09982 | -87.20402 | 5161 ft | 197 kts | 7° |
| 2026-05-03 22:08 | 14.11270 | -87.20239 | 6223 ft | 173 kts | 15° |
| 2026-05-03 22:08 | 14.12518 | -87.19988 | 6901 ft | 198 kts | 17° |
| 2026-05-03 22:08 | 14.13959 | -87.19688 | 7558 ft | 222 kts | 10° |
| 2026-05-03 22:09 | 14.15624 | -87.19394 | 7954 ft | 262 kts | 12° |
| 2026-05-03 22:09 | 14.17514 | -87.18985 | 8429 ft | 287 kts | 14° |
| 2026-05-03 22:09 | 14.19442 | -87.18647 | 8846 ft | 271 kts | 1° |
| 2026-05-03 22:10 | 14.22321 | -87.20586 | 8479 ft | 260 kts | 290° |
| 2026-05-03 22:10 | 14.22451 | -87.22398 | 8004 ft | 257 kts | 252° |
| 2026-05-03 22:10 | 14.21664 | -87.23998 | 7785 ft | 244 kts | 254° |
| 2026-05-03 22:10 | 14.21434 | -87.25692 | 7566 ft | 233 kts | 270° |
| 2026-05-03 22:11 | 14.21353 | -87.27299 | 7502 ft | 219 kts | 269° |
| 2026-05-03 22:11 | 14.21258 | -87.28874 | 7122 ft | 224 kts | 266° |
| 2026-05-03 22:11 | 14.21141 | -87.30518 | 6943 ft | 238 kts | 268° |
| 2026-05-03 22:11 | 14.20778 | -87.32253 | 7120 ft | 256 kts | 247° |
| 2026-05-03 22:12 | 14.19773 | -87.33714 | 7221 ft | 252 kts | 214° |
| 2026-05-03 22:12 | 14.18166 | -87.34434 | 6836 ft | 255 kts | 184° |
| 2026-05-03 22:12 | 14.16445 | -87.34331 | 6384 ft | 244 kts | 165° |
| 2026-05-03 22:12 | 14.14805 | -87.33879 | 6241 ft | 244 kts | 158° |
| 2026-05-03 22:13 | 14.13224 | -87.33302 | 6054 ft | 232 kts | 157° |
| 2026-05-03 22:13 | 14.11710 | -87.32940 | 6079 ft | 224 kts | 167° |
| 2026-05-03 22:13 | 14.10174 | -87.32598 | 6063 ft | 225 kts | 159° |
| 2026-05-03 22:13 | 14.08799 | -87.31900 | 5928 ft | 220 kts | 141° |
| 2026-05-03 22:14 | 14.07783 | -87.30763 | 5513 ft | 207 kts | 121° |
| 2026-05-03 22:14 | 14.07058 | -87.29527 | 5072 ft | 200 kts | 121° |
| 2026-05-03 22:14 | 14.06324 | -87.28334 | 4643 ft | 196 kts | 120° |
| 2026-05-03 22:14 | 14.05607 | -87.27198 | 4289 ft | 185 kts | 122° |
| 2026-05-03 22:15 | 14.04899 | -87.26081 | 4015 ft | 187 kts | 120° |
| 2026-05-03 22:15 | 14.04190 | -87.24957 | 4036 ft | 181 kts | 121° |
| 2026-05-03 22:15 | 14.03835 | -87.23809 | 4019 ft | 160 kts | 82° |
| 2026-05-03 22:15 | 14.04247 | -87.22829 | 3822 ft | 146 kts | 58° |
| 2026-05-03 22:16 | 14.04983 | -87.22152 | 3472 ft | 147 kts | 26° |
| 2026-05-03 22:16 | 14.05916 | -87.21803 | 3288 ft | 131 kts | 25° |
| 2026-05-03 22:16 | 14.06583 | -87.21555 | 3267 ft | 64 kts | 24° |
| 2026-05-03 22:16 | 14.06821 | -87.21464 | 3262 ft | 15 kts | 13° |
| 2026-05-03 22:17 | 14.06880 | -87.21508 | 3258 ft | 11 kts | 270° |
| 2026-05-03 22:17 | 14.06828 | -87.21548 | 3260 ft | 8 kts | 199° |
| 2026-05-03 22:17 | 14.06785 | -87.21563 | 3262 ft | 5 kts | 199° |
| 2026-05-03 22:17 | 14.06744 | -87.21577 | 3262 ft | 8 kts | 199° |
| 2026-05-03 22:18 | 14.06706 | -87.21590 | 3264 ft | 3 kts | 199° |
| 2026-05-03 22:18 | 14.06692 | -87.21595 | 3266 ft | 5 kts | 199° |
| 2026-05-03 22:18 | 14.06630 | -87.21617 | 3266 ft | 10 kts | 199° |
| 2026-05-03 22:18 | 14.06565 | -87.21639 | 3268 ft | 13 kts | 199° |
| 2026-05-03 22:19 | 14.06491 | -87.21665 | 3268 ft | 10 kts | 199° |
| 2026-05-03 22:19 | 14.06424 | -87.21689 | 3270 ft | 8 kts | 199° |
| 2026-05-03 22:19 | 14.06384 | -87.21703 | 3271 ft | 4 kts | 199° |
| 2026-05-03 22:19 | 14.06310 | -87.21730 | 3275 ft | 23 kts | 199° |
| 2026-05-03 22:20 | 14.06161 | -87.21782 | 3266 ft | 20 kts | 198° |
| 2026-05-03 22:20 | 14.06089 | -87.21810 | 3270 ft | 4 kts | 223° |
| 2026-05-03 22:20 | 14.06088 | -87.21829 | 3267 ft | 3 kts | 279° |
| 2026-05-03 22:20 | 14.06099 | -87.21860 | 3267 ft | 3 kts | 288° |
| 2026-05-03 22:21 | 14.06100 | -87.21863 | 3267 ft | 0 kts | 287° |